createdAt,value
2019-03-16T00:00:31.921Z,9.80
2019-03-16T00:03:01.195Z,9.80
2019-03-16T00:05:31.754Z,9.80
2019-03-16T00:08:03.097Z,9.90
2019-03-16T00:10:32.353Z,9.90
2019-03-16T00:13:01.629Z,10.10
2019-03-16T00:15:30.917Z,10.20
2019-03-16T00:18:00.199Z,10.10
2019-03-16T00:20:29.468Z,10.00
2019-03-16T00:23:01.939Z,9.90
2019-03-16T00:25:32.147Z,9.90
2019-03-16T00:28:05.290Z,9.90
2019-03-16T00:30:34.571Z,9.90
2019-03-16T00:33:04.761Z,9.80
2019-03-16T00:35:34.142Z,9.80
2019-03-16T00:38:03.430Z,9.80
2019-03-16T00:40:33.768Z,9.90
2019-03-16T00:43:03.146Z,9.60
2019-03-16T00:45:32.446Z,9.50
2019-03-16T00:48:03.673Z,9.50
2019-03-16T00:50:33.184Z,9.40
2019-03-16T00:53:02.398Z,9.40
2019-03-16T00:55:31.799Z,9.40
2019-03-16T00:58:01.084Z,9.50
2019-03-16T01:00:31.420Z,9.60
2019-03-16T01:03:00.647Z,9.70
2019-03-16T01:05:29.929Z,9.60
2019-03-16T01:07:59.196Z,9.60
2019-03-16T01:10:31.412Z,9.60
2019-03-16T01:13:00.709Z,9.70
2019-03-16T01:15:32.150Z,9.60
2019-03-16T01:18:01.505Z,9.70
2019-03-16T01:20:30.769Z,9.80
2019-03-16T01:23:01.077Z,9.90
2019-03-16T01:25:30.671Z,9.80
2019-03-16T01:28:02.754Z,9.70
2019-03-16T01:30:31.739Z,9.90
2019-03-16T01:33:02.890Z,10.00
2019-03-16T01:35:32.193Z,10.00
2019-03-16T01:38:02.517Z,10.10
2019-03-16T01:40:33.079Z,10.30
2019-03-16T01:43:02.318Z,10.40
2019-03-16T01:45:31.631Z,10.50
2019-03-16T01:48:00.954Z,10.50
2019-03-16T01:50:30.192Z,10.50
2019-03-16T01:52:59.627Z,10.60
2019-03-16T01:55:29.878Z,10.60
2019-03-16T01:57:59.321Z,10.70
2019-03-16T02:00:28.571Z,10.70
2019-03-16T02:02:57.872Z,10.70
2019-03-16T02:05:27.249Z,10.80
2019-03-16T02:08:00.945Z,10.90
2019-03-16T02:10:31.336Z,11.10
2019-03-16T02:13:01.693Z,10.90
2019-03-16T02:15:32.243Z,10.70
2019-03-16T02:21:15.254Z,10.80
2019-03-16T02:23:50.209Z,10.80
2019-03-16T02:26:22.764Z,10.90
2019-03-16T02:28:55.373Z,10.80
2019-03-16T02:31:24.653Z,10.80
2019-03-16T02:33:55.453Z,10.70
2019-03-16T02:36:25.548Z,10.80
2019-03-16T02:38:56.084Z,10.70
2019-03-16T02:41:25.493Z,10.60
2019-03-16T02:43:58.260Z,10.60
2019-03-16T02:46:29.717Z,10.60
2019-03-16T02:48:59.025Z,10.70
2019-03-16T02:51:28.381Z,10.70
2019-03-16T02:54:01.233Z,10.70
2019-03-16T02:56:32.271Z,10.80
2019-03-16T02:59:02.902Z,10.80
2019-03-16T03:01:35.759Z,10.70
2019-03-16T03:04:06.034Z,10.70
2019-03-16T03:06:37.638Z,10.70
2019-03-16T03:09:08.374Z,10.60
2019-03-16T03:11:44.159Z,10.60
2019-03-16T03:14:15.619Z,10.60
2019-03-16T03:16:49.699Z,10.60
2019-03-16T03:19:24.010Z,10.50
2019-03-16T03:21:55.429Z,10.50
2019-03-16T03:24:24.960Z,10.50
2019-03-16T03:26:56.049Z,10.50
2019-03-16T03:29:27.975Z,10.50
2019-03-16T03:31:57.270Z,10.60
2019-03-16T03:34:26.574Z,10.50
2019-03-16T03:36:58.569Z,10.60
2019-03-16T03:39:27.841Z,10.50
2019-03-16T03:41:59.181Z,10.60
2019-03-16T03:44:29.661Z,10.60
2019-03-16T03:47:04.695Z,10.70
2019-03-16T03:49:38.442Z,10.70
2019-03-16T03:52:15.458Z,10.70
2019-03-16T03:54:44.745Z,10.70
2019-03-16T03:57:22.548Z,10.60
2019-03-16T03:59:51.850Z,10.60
2019-03-16T04:02:30.305Z,10.90
2019-03-16T04:04:56.511Z,10.80
2019-03-16T04:07:27.840Z,10.80
2019-03-16T04:09:59.484Z,10.80
2019-03-16T04:12:28.793Z,10.70
2019-03-16T04:15:00.172Z,10.70
2019-03-16T04:17:29.765Z,10.70
2019-03-16T04:19:59.067Z,10.70
2019-03-16T04:22:31.543Z,10.70
2019-03-16T04:25:03.814Z,10.60
2019-03-16T04:27:34.161Z,10.60
2019-03-16T04:30:11.016Z,10.60
2019-03-16T04:32:43.993Z,10.70
2019-03-16T04:35:19.626Z,10.80
2019-03-16T04:37:49.047Z,10.90
2019-03-16T04:40:21.037Z,10.80
2019-03-16T04:42:50.448Z,10.70
2019-03-16T04:45:19.812Z,10.70
2019-03-16T04:47:49.221Z,10.70
2019-03-16T04:50:20.279Z,10.60
2019-03-16T04:52:51.126Z,10.60
2019-03-16T04:55:21.700Z,10.60
2019-03-16T04:57:53.366Z,10.60
2019-03-16T05:00:23.683Z,10.80
2019-03-16T05:02:59.152Z,10.60
2019-03-16T05:05:28.589Z,10.60
2019-03-16T05:07:58.062Z,10.60
2019-03-16T05:10:27.492Z,10.60
2019-03-16T05:13:00.172Z,10.70
2019-03-16T05:15:29.673Z,10.70
2019-03-16T05:17:59.084Z,10.80
2019-03-16T05:20:28.376Z,10.80
2019-03-16T05:23:01.050Z,10.80
2019-03-16T05:25:30.925Z,10.80
2019-03-16T05:28:00.225Z,10.80
2019-03-16T05:30:30.446Z,10.70
2019-03-16T05:32:59.749Z,10.60
2019-03-16T05:35:29.298Z,10.60
2019-03-16T05:37:58.739Z,10.60
2019-03-16T05:40:30.157Z,10.60
2019-03-16T05:42:59.529Z,10.60
2019-03-16T05:45:30.073Z,10.60
2019-03-16T05:48:00.361Z,10.70
2019-03-16T05:50:29.720Z,10.70
2019-03-16T05:53:00.027Z,10.70
2019-03-16T05:55:29.474Z,10.90
2019-03-16T05:58:02.082Z,10.70
2019-03-16T06:00:32.454Z,10.80
2019-03-16T06:03:02.693Z,10.90
2019-03-16T06:05:35.785Z,10.80
2019-03-16T06:08:05.287Z,10.80
2019-03-16T06:10:36.615Z,10.80
2019-03-16T06:13:06.291Z,10.70
2019-03-16T06:15:36.585Z,10.80
2019-03-16T06:18:08.201Z,10.80
2019-03-16T06:20:38.596Z,10.90
2019-03-16T06:23:10.735Z,10.60
2019-03-16T06:25:45.854Z,10.60
2019-03-16T06:28:16.178Z,10.70
2019-03-16T06:30:48.066Z,10.60
2019-03-16T06:33:20.328Z,10.70
2019-03-16T06:35:50.584Z,10.70
2019-03-16T06:38:19.981Z,10.60
2019-03-16T06:40:49.382Z,10.60
2019-03-16T06:43:18.761Z,10.60
2019-03-16T06:45:48.087Z,10.60
2019-03-16T06:48:18.376Z,10.60
2019-03-16T06:50:47.739Z,10.70
2019-03-16T06:53:19.552Z,10.70
2019-03-16T06:55:48.034Z,10.80
2019-03-16T06:58:18.462Z,10.80
2019-03-16T07:00:48.787Z,10.80
2019-03-16T07:03:21.906Z,10.80
2019-03-16T07:05:52.128Z,10.80
2019-03-16T07:08:24.838Z,10.80
2019-03-16T07:10:54.159Z,10.90
2019-03-16T07:13:23.549Z,10.80
2019-03-16T07:15:53.048Z,10.80
2019-03-16T07:18:22.502Z,10.80
2019-03-16T07:20:52.167Z,10.80
2019-03-16T07:23:24.610Z,10.80
2019-03-16T07:25:55.624Z,10.90
2019-03-16T07:28:24.962Z,10.80
2019-03-16T07:30:55.030Z,10.70
2019-03-16T07:33:24.563Z,10.80
2019-03-16T07:35:53.915Z,10.90
2019-03-16T07:38:25.860Z,10.90
2019-03-16T07:40:58.602Z,11.00
2019-03-16T07:43:30.119Z,11.00
2019-03-16T07:46:02.055Z,11.00
2019-03-16T07:48:33.688Z,11.10
2019-03-16T07:51:03.059Z,11.00
2019-03-16T07:53:32.444Z,11.00
2019-03-16T07:56:03.000Z,11.10
2019-03-16T07:58:33.843Z,11.10
2019-03-16T08:01:05.188Z,11.20
2019-03-16T08:03:34.530Z,11.20
2019-03-16T08:06:05.205Z,11.10
2019-03-16T08:08:38.620Z,11.10
2019-03-16T08:11:08.606Z,11.20
2019-03-16T08:13:38.071Z,11.20
2019-03-16T08:16:11.093Z,11.20
2019-03-16T08:18:42.980Z,11.30
2019-03-16T08:21:13.967Z,11.30
2019-03-16T08:23:44.319Z,11.30
2019-03-16T08:26:13.635Z,11.40
2019-03-16T08:28:42.874Z,11.50
2019-03-16T08:31:12.221Z,11.50
2019-03-16T08:33:42.705Z,11.50
2019-03-16T08:36:15.003Z,11.50
2019-03-16T08:38:50.890Z,11.60
2019-03-16T08:41:20.308Z,11.70
2019-03-16T08:43:55.316Z,11.70
2019-03-16T08:46:24.954Z,11.80
2019-03-16T08:48:55.838Z,12.00
2019-03-16T08:51:28.152Z,11.90
2019-03-16T08:54:10.676Z,12.00
2019-03-16T08:56:43.835Z,11.90
2019-03-16T08:59:24.838Z,11.80
2019-03-16T09:01:59.154Z,11.60
2019-03-16T09:04:28.909Z,11.60
2019-03-16T09:06:59.473Z,11.70
2019-03-16T09:13:32.231Z,11.80
2019-03-16T09:16:10.228Z,11.80
2019-03-16T09:18:42.194Z,11.80
2019-03-16T09:21:11.553Z,11.90
2019-03-16T09:23:48.225Z,11.80
2019-03-16T09:26:17.547Z,11.90
2019-03-16T09:28:59.705Z,11.90
2019-03-16T09:31:22.590Z,11.90
2019-03-16T09:33:54.465Z,11.70
2019-03-16T09:36:23.919Z,11.70
2019-03-16T09:38:53.896Z,11.90
2019-03-16T09:41:24.363Z,11.90
2019-03-16T09:43:53.719Z,11.80
2019-03-16T09:46:24.774Z,11.70
2019-03-16T09:48:54.084Z,11.60
2019-03-16T09:51:23.479Z,11.50
2019-03-16T09:53:52.876Z,11.70
2019-03-16T09:56:22.245Z,11.60
2019-03-16T09:58:54.926Z,11.50
2019-03-16T10:01:24.236Z,11.70
2019-03-16T10:03:57.034Z,11.70
2019-03-16T10:06:26.387Z,11.60
2019-03-16T10:08:56.737Z,11.60
2019-03-16T10:11:27.755Z,11.70
2019-03-16T10:13:58.182Z,11.70
2019-03-16T10:16:29.473Z,11.60
2019-03-16T10:18:58.903Z,11.40
2019-03-16T10:21:29.200Z,11.30
2019-03-16T10:23:59.819Z,11.30
2019-03-16T10:26:32.173Z,11.30
2019-03-16T10:29:03.671Z,11.30
2019-03-16T10:31:33.002Z,11.30
2019-03-16T10:34:05.984Z,11.30
2019-03-16T10:36:35.512Z,11.30
2019-03-16T10:39:06.030Z,11.30
2019-03-16T10:41:35.534Z,11.20
2019-03-16T10:44:05.104Z,11.30
2019-03-16T10:46:37.353Z,11.40
2019-03-16T10:49:07.683Z,11.50
2019-03-16T10:51:38.608Z,11.50
2019-03-16T10:54:10.504Z,11.50
2019-03-16T10:56:42.591Z,11.50
2019-03-16T10:59:16.802Z,11.40
2019-03-16T11:01:49.949Z,11.40
2019-03-16T11:04:20.200Z,11.40
2019-03-16T11:06:50.339Z,11.60
2019-03-16T11:09:22.372Z,11.70
2019-03-16T11:11:52.677Z,11.80
2019-03-16T11:14:25.788Z,11.80
2019-03-16T11:16:56.587Z,11.90
2019-03-16T11:19:25.890Z,11.80
2019-03-16T11:25:30.168Z,11.80
2019-03-16T11:28:24.292Z,11.90
2019-03-16T11:31:00.847Z,12.00
2019-03-16T11:33:34.726Z,12.00
2019-03-16T11:36:09.651Z,12.20
2019-03-16T11:38:45.541Z,12.20
2019-03-16T11:41:17.163Z,12.30
2019-03-16T11:43:48.628Z,12.10
2019-03-16T11:49:44.370Z,11.90
2019-03-16T11:52:13.635Z,11.80
2019-03-16T11:54:46.929Z,11.80
2019-03-16T11:57:23.996Z,11.90
2019-03-16T11:59:56.620Z,11.90
2019-03-16T12:02:28.892Z,11.90
2019-03-16T12:04:59.311Z,11.90
2019-03-16T12:07:34.879Z,11.90
2019-03-16T12:10:08.251Z,12.00
2019-03-16T12:12:44.428Z,11.90
2019-03-16T12:15:24.944Z,11.80
2019-03-16T12:18:00.190Z,11.80
2019-03-16T12:20:29.560Z,11.90
2019-03-16T12:23:01.693Z,11.80
2019-03-16T12:25:32.004Z,11.80
2019-03-16T12:28:04.327Z,11.80
2019-03-16T12:30:34.579Z,11.80
2019-03-16T12:33:09.691Z,11.90
2019-03-16T12:35:42.385Z,11.90
2019-03-16T12:38:11.819Z,11.70
2019-03-16T12:40:45.120Z,11.70
2019-03-16T12:43:17.074Z,11.70
2019-03-16T12:45:46.565Z,11.80
2019-03-16T12:48:19.528Z,11.90
2019-03-16T12:50:54.555Z,12.20
2019-03-16T12:53:24.369Z,12.20
2019-03-16T12:55:55.427Z,12.10
2019-03-16T12:58:28.807Z,12.00
2019-03-16T13:01:15.994Z,12.00
2019-03-16T13:03:50.484Z,12.00
2019-03-16T13:06:22.738Z,11.90
2019-03-16T13:08:55.753Z,11.90
2019-03-16T13:11:24.774Z,12.00
2019-03-16T13:13:57.790Z,12.20
2019-03-16T13:16:27.273Z,12.10
2019-03-16T13:19:00.349Z,12.00
2019-03-16T13:21:35.498Z,12.00
2019-03-16T13:24:07.367Z,12.10
2019-03-16T13:26:36.817Z,12.10
2019-03-16T13:29:06.762Z,12.00
2019-03-16T13:31:38.983Z,12.10
2019-03-16T13:34:11.898Z,12.00
2019-03-16T13:40:01.973Z,12.00
2019-03-16T13:42:32.896Z,12.10
2019-03-16T13:45:19.862Z,12.00
2019-03-16T13:47:53.392Z,12.00
2019-03-16T13:50:28.391Z,12.00
2019-03-16T13:52:58.106Z,12.00
2019-03-16T13:55:45.420Z,12.10
2019-03-16T13:58:21.896Z,12.10
2019-03-16T14:00:54.822Z,12.20
2019-03-16T14:03:24.463Z,12.30
2019-03-16T14:05:58.774Z,12.30
2019-03-16T14:08:28.160Z,12.30
2019-03-16T14:10:59.338Z,12.30
2019-03-16T14:13:30.133Z,12.30
2019-03-16T14:15:59.405Z,12.40
2019-03-16T14:18:28.696Z,12.30
2019-03-16T14:20:58.067Z,12.40
2019-03-16T14:23:29.451Z,12.40
2019-03-16T14:25:59.098Z,12.60
2019-03-16T14:28:34.833Z,12.60
2019-03-16T14:31:07.550Z,12.70
2019-03-16T14:33:36.931Z,12.60
2019-03-16T14:36:18.488Z,12.50
2019-03-16T14:38:48.565Z,12.50
2019-03-16T14:41:17.856Z,12.30
2019-03-16T14:43:47.120Z,12.30
2019-03-16T14:46:18.606Z,12.20
2019-03-16T14:48:49.019Z,12.40
2019-03-16T14:51:24.603Z,12.30
2019-03-16T14:53:52.588Z,12.30
2019-03-16T14:56:21.934Z,12.40
2019-03-16T14:58:52.263Z,12.60
2019-03-16T15:01:27.303Z,12.60
2019-03-16T15:03:56.604Z,12.60
2019-03-16T15:06:26.923Z,12.80
2019-03-16T15:08:59.068Z,12.90
2019-03-16T15:11:33.637Z,12.90
2019-03-16T15:14:20.964Z,12.80
2019-03-16T15:16:59.648Z,12.80
2019-03-16T15:19:44.684Z,12.90
2019-03-16T15:22:13.959Z,12.70
2019-03-16T15:24:43.412Z,12.70
2019-03-16T15:27:16.840Z,12.80
2019-03-16T15:29:46.246Z,12.80
2019-03-16T15:32:18.352Z,12.60
2019-03-16T15:34:48.153Z,12.60
2019-03-16T15:37:17.522Z,12.50
2019-03-16T15:39:46.824Z,12.50
2019-03-16T15:42:18.041Z,12.40
2019-03-16T15:44:48.393Z,12.40
2019-03-16T15:50:35.375Z,12.50
2019-03-16T15:53:04.706Z,12.60
2019-03-16T15:55:39.276Z,12.60
2019-03-16T15:58:11.287Z,12.50
2019-03-16T16:00:42.181Z,12.50
2019-03-16T16:03:11.860Z,12.50
2019-03-16T16:05:42.802Z,12.60
2019-03-16T16:08:20.847Z,12.60
2019-03-16T16:11:00.374Z,12.60
2019-03-16T16:13:25.070Z,12.70
2019-03-16T16:15:56.457Z,12.80
2019-03-16T16:18:26.719Z,12.70
2019-03-16T16:20:56.110Z,12.80
2019-03-16T16:23:25.413Z,12.90
2019-03-16T16:25:54.742Z,12.80
2019-03-16T16:28:25.724Z,12.80
2019-03-16T16:30:55.241Z,12.80
2019-03-16T16:33:24.537Z,12.80
2019-03-16T16:35:55.449Z,12.90
2019-03-16T16:38:26.061Z,12.90
2019-03-16T16:40:56.418Z,12.90
2019-03-16T16:43:30.109Z,12.80
2019-03-16T16:46:00.433Z,12.80
2019-03-16T16:48:32.813Z,12.90
2019-03-16T16:51:04.718Z,12.90
2019-03-16T16:53:37.269Z,13.00
2019-03-16T16:56:10.497Z,13.00
2019-03-16T16:58:49.040Z,13.00
2019-03-16T17:01:28.752Z,13.00
2019-03-16T17:03:57.282Z,13.00
2019-03-16T17:06:26.852Z,12.80
2019-03-16T17:08:58.280Z,12.80
2019-03-16T17:11:27.613Z,12.80
2019-03-16T17:17:35.373Z,12.70
2019-03-16T17:20:08.405Z,12.70
2019-03-16T17:22:41.290Z,12.70
2019-03-16T17:25:13.917Z,12.70
2019-03-16T17:27:46.298Z,12.70
2019-03-16T17:30:24.407Z,12.80
2019-03-16T17:32:56.885Z,12.80
2019-03-16T17:35:28.541Z,12.70
2019-03-16T17:37:59.085Z,12.70
2019-03-16T17:40:29.860Z,12.70
2019-03-16T17:43:02.344Z,12.70
2019-03-16T17:45:36.151Z,12.70
2019-03-16T17:48:06.482Z,12.80
2019-03-16T17:50:36.779Z,12.90
2019-03-16T17:53:06.105Z,12.80
2019-03-16T17:55:35.521Z,12.90
2019-03-16T17:58:11.783Z,12.90
2019-03-16T18:01:12.373Z,12.80
2019-03-16T18:04:00.879Z,12.80
2019-03-16T18:06:31.527Z,12.80
2019-03-16T18:09:03.172Z,12.80
2019-03-16T18:11:37.161Z,12.80
2019-03-16T18:14:06.489Z,12.80
2019-03-16T18:16:35.810Z,12.90
2019-03-16T18:19:08.177Z,12.80
2019-03-16T18:21:40.721Z,12.80
2019-03-16T18:24:17.660Z,12.70
2019-03-16T18:26:46.907Z,12.60
2019-03-16T18:29:18.203Z,12.60
2019-03-16T18:31:48.799Z,12.60
2019-03-16T18:34:22.343Z,12.50
2019-03-16T18:36:53.136Z,12.50
2019-03-16T18:39:23.108Z,12.60
2019-03-16T18:41:53.529Z,12.50
2019-03-16T18:44:22.874Z,12.50
2019-03-16T18:46:53.306Z,12.50
2019-03-16T18:49:25.393Z,12.50
2019-03-16T18:55:29.268Z,12.60
2019-03-16T18:58:08.583Z,12.60
2019-03-16T19:00:38.886Z,12.50
2019-03-16T19:03:11.313Z,12.50
2019-03-16T19:05:50.453Z,12.50
2019-03-16T19:08:23.222Z,12.50
2019-03-16T19:10:55.918Z,12.50
2019-03-16T19:13:28.324Z,12.50
2019-03-16T19:16:10.120Z,12.50
2019-03-16T19:18:40.526Z,12.50
2019-03-16T19:21:09.911Z,12.50
2019-03-16T19:23:39.473Z,12.40
2019-03-16T19:26:10.779Z,12.40
2019-03-16T19:28:41.152Z,12.40
2019-03-16T19:31:10.524Z,12.50
2019-03-16T19:33:41.841Z,12.50
2019-03-16T19:36:11.158Z,12.50
2019-03-16T19:38:41.497Z,12.40
2019-03-16T19:41:15.165Z,12.40
2019-03-16T19:43:45.458Z,12.40
2019-03-16T19:46:15.698Z,12.40
2019-03-16T19:48:45.945Z,12.40
2019-03-16T19:51:16.554Z,12.40
2019-03-16T19:53:46.948Z,12.40
2019-03-16T19:56:18.278Z,12.30
2019-03-16T19:59:00.209Z,12.40
2019-03-16T20:01:21.027Z,12.40
2019-03-16T20:03:52.281Z,12.30
2019-03-16T20:06:26.008Z,12.30
2019-03-16T20:08:53.052Z,12.30
2019-03-16T20:11:27.056Z,12.30
2019-03-16T20:14:08.404Z,12.30
2019-03-16T20:17:05.141Z,12.30
2019-03-16T20:19:38.079Z,12.30
2019-03-16T20:22:12.396Z,12.20
2019-03-16T20:24:45.521Z,12.30
2019-03-16T20:27:17.015Z,12.30
2019-03-16T20:29:46.340Z,12.40
2019-03-16T20:32:17.210Z,12.30
2019-03-16T20:34:46.622Z,12.40
2019-03-16T20:37:15.948Z,12.30
2019-03-16T20:39:45.477Z,12.20
2019-03-16T20:42:16.236Z,12.20
2019-03-16T20:44:46.601Z,12.20
2019-03-16T20:47:19.435Z,12.20
2019-03-16T20:49:48.640Z,12.20
2019-03-16T20:52:20.781Z,12.20
2019-03-16T20:54:53.519Z,12.20
2019-03-16T20:57:23.485Z,12.10
2019-03-16T20:59:54.653Z,12.10
2019-03-16T21:02:23.917Z,12.10
2019-03-16T21:04:54.144Z,12.10
2019-03-16T21:07:26.423Z,12.10
2019-03-16T21:09:55.744Z,12.10
2019-03-16T21:12:25.343Z,12.20
2019-03-16T21:14:54.578Z,12.20
2019-03-16T21:17:25.948Z,12.10
2019-03-16T21:19:56.269Z,12.10
2019-03-16T21:22:34.933Z,12.20
2019-03-16T21:24:57.621Z,12.20
2019-03-16T21:27:27.692Z,12.10
2019-03-16T21:29:56.990Z,12.10
2019-03-16T21:32:27.408Z,12.10
2019-03-16T21:34:58.641Z,12.10
2019-03-16T21:37:28.295Z,12.10
2019-03-16T21:39:57.557Z,12.10
2019-03-16T21:42:30.785Z,12.10
2019-03-16T21:45:02.105Z,12.10
2019-03-16T21:47:33.085Z,12.10
2019-03-16T21:50:02.336Z,12.10
2019-03-16T21:52:33.593Z,12.10
2019-03-16T21:55:06.645Z,12.00
2019-03-16T21:57:37.967Z,12.00
2019-03-16T22:00:10.506Z,12.00
2019-03-16T22:02:39.776Z,12.10
2019-03-16T22:05:10.177Z,12.10
2019-03-16T22:07:39.764Z,12.10
2019-03-16T22:10:14.237Z,12.00
2019-03-16T22:12:46.898Z,12.00
2019-03-16T22:15:18.090Z,11.90
2019-03-16T22:17:49.007Z,12.00
2019-03-16T22:20:19.286Z,11.90
2019-03-16T22:22:50.620Z,11.90
2019-03-16T22:25:25.344Z,11.90
2019-03-16T22:27:54.600Z,11.90
2019-03-16T22:30:23.912Z,11.90
2019-03-16T22:32:53.179Z,11.90
2019-03-16T22:35:22.618Z,11.90
2019-03-16T22:37:51.984Z,12.00
2019-03-16T22:40:21.212Z,12.00
2019-03-16T22:42:51.512Z,12.00
2019-03-16T22:45:20.784Z,11.80
2019-03-16T22:47:52.740Z,11.80
2019-03-16T22:50:22.025Z,11.90
2019-03-16T22:52:52.383Z,11.90
2019-03-16T22:55:26.069Z,11.80
2019-03-16T22:57:55.275Z,11.80
2019-03-16T23:00:26.210Z,11.80
2019-03-16T23:02:57.111Z,11.80
2019-03-16T23:05:26.364Z,11.80
2019-03-16T23:07:56.706Z,11.90
2019-03-16T23:10:26.967Z,11.90
2019-03-16T23:12:59.553Z,11.80
2019-03-16T23:15:31.024Z,11.70
2019-03-16T23:18:00.347Z,11.60
2019-03-16T23:20:29.625Z,11.50
2019-03-16T23:23:02.479Z,11.50
2019-03-16T23:25:31.061Z,11.50
2019-03-16T23:28:01.624Z,11.40
2019-03-16T23:30:31.069Z,11.30
2019-03-16T23:33:00.431Z,11.20
2019-03-16T23:35:36.112Z,11.20
2019-03-16T23:38:03.107Z,11.20
2019-03-16T23:40:32.714Z,11.20
2019-03-16T23:43:01.970Z,11.10
2019-03-16T23:45:32.251Z,11.20
2019-03-16T23:48:02.618Z,11.20
2019-03-16T23:50:33.018Z,11.10
2019-03-16T23:53:03.312Z,11.10
2019-03-16T23:55:32.608Z,11.00
2019-03-16T23:58:03.529Z,11.00
